sensor_id;sensor_type;location;lat;lon;timestamp;pressure;altitude;pressure_sealevel;temperature;humidity
62072;BME280;48031;48.542;13.232;2023-09-19T00:03:38;97040.72;;;20.99;100.00
62072;BME280;48031;48.542;13.232;2023-09-19T00:07:41;97041.09;;;21.44;100.00
62072;BME280;48031;48.542;13.232;2023-09-19T00:11:44;97045.44;;;20.82;100.00
62072;BME280;48031;48.542;13.232;2023-09-19T00:15:47;97048.94;;;21.25;100.00
62072;BME280;48031;48.542;13.232;2023-09-19T00:19:52;97055.66;;;20.81;100.00
62072;BME280;48031;48.542;13.232;2023-09-19T00:23:54;97047.69;;;21.23;100.00
62072;BME280;48031;48.542;13.232;2023-09-19T00:27:56;97059.50;;;21.70;100.00
62072;BME280;48031;48.542;13.232;2023-09-19T00:32:00;97064.38;;;21.26;100.00
62072;BME280;48031;48.542;13.232;2023-09-19T00:36:05;97061.50;;;21.61;100.00
62072;BME280;48031;48.542;13.232;2023-09-19T00:40:09;97058.72;;;21.23;100.00
62072;BME280;48031;48.542;13.232;2023-09-19T00:44:17;97062.69;;;21.42;100.00
62072;BME280;48031;48.542;13.232;2023-09-19T00:48:22;97055.91;;;21.78;100.00
62072;BME280;48031;48.542;13.232;2023-09-19T00:52:25;97066.44;;;22.14;100.00
62072;BME280;48031;48.542;13.232;2023-09-19T00:56:28;97071.94;;;21.55;100.00
62072;BME280;48031;48.542;13.232;2023-09-19T01:00:32;97072.75;;;21.47;100.00
62072;BME280;48031;48.542;13.232;2023-09-19T01:04:36;97061.69;;;21.85;100.00
62072;BME280;48031;48.542;13.232;2023-09-19T01:08:38;97068.47;;;22.05;100.00
62072;BME280;48031;48.542;13.232;2023-09-19T01:17:05;97067.84;;;21.90;100.00
62072;BME280;48031;48.542;13.232;2023-09-19T01:29:44;97071.53;;;21.27;100.00
62072;BME280;48031;48.542;13.232;2023-09-19T01:33:54;97067.16;;;21.73;100.00
62072;BME280;48031;48.542;13.232;2023-09-19T01:38:01;97068.34;;;21.54;100.00
62072;BME280;48031;48.542;13.232;2023-09-19T01:46:15;97063.16;;;20.89;100.00
62072;BME280;48031;48.542;13.232;2023-09-19T01:54:33;97071.13;;;21.54;100.00
62072;BME280;48031;48.542;13.232;2023-09-19T01:58:49;97060.72;;;21.51;100.00
62072;BME280;48031;48.542;13.232;2023-09-19T02:02:53;97065.53;;;21.72;100.00
62072;BME280;48031;48.542;13.232;2023-09-19T02:06:57;97069.28;;;22.05;100.00
62072;BME280;48031;48.542;13.232;2023-09-19T02:11:00;97078.25;;;21.93;100.00
62072;BME280;48031;48.542;13.232;2023-09-19T02:15:03;97056.66;;;21.87;100.00
62072;BME280;48031;48.542;13.232;2023-09-19T02:19:09;97076.47;;;21.97;100.00
62072;BME280;48031;48.542;13.232;2023-09-19T02:23:11;97076.94;;;22.00;100.00
62072;BME280;48031;48.542;13.232;2023-09-19T02:27:14;97077.25;;;22.07;100.00
62072;BME280;48031;48.542;13.232;2023-09-19T02:31:17;97075.34;;;21.90;100.00
62072;BME280;48031;48.542;13.232;2023-09-19T02:35:20;97081.22;;;21.80;100.00
62072;BME280;48031;48.542;13.232;2023-09-19T02:39:22;97078.53;;;21.63;100.00
62072;BME280;48031;48.542;13.232;2023-09-19T02:43:26;97076.59;;;22.30;100.00
62072;BME280;48031;48.542;13.232;2023-09-19T02:47:28;97078.44;;;21.88;100.00
62072;BME280;48031;48.542;13.232;2023-09-19T02:51:32;97071.66;;;21.77;100.00
62072;BME280;48031;48.542;13.232;2023-09-19T02:55:35;97088.66;;;22.26;100.00
62072;BME280;48031;48.542;13.232;2023-09-19T02:59:37;97081.47;;;21.66;100.00
62072;BME280;48031;48.542;13.232;2023-09-19T03:03:39;97078.41;;;21.59;100.00
62072;BME280;48031;48.542;13.232;2023-09-19T03:07:42;97080.53;;;22.00;100.00
62072;BME280;48031;48.542;13.232;2023-09-19T03:11:55;97074.47;;;22.07;100.00
62072;BME280;48031;48.542;13.232;2023-09-19T03:15:59;97088.06;;;21.74;100.00
62072;BME280;48031;48.542;13.232;2023-09-19T03:20:03;97093.16;;;21.72;100.00
62072;BME280;48031;48.542;13.232;2023-09-19T03:24:06;97089.38;;;22.14;100.00
62072;BME280;48031;48.542;13.232;2023-09-19T03:28:08;97090.56;;;22.05;100.00
62072;BME280;48031;48.542;13.232;2023-09-19T03:32:12;97089.44;;;21.59;100.00
62072;BME280;48031;48.542;13.232;2023-09-19T03:36:15;97084.03;;;21.33;100.00
62072;BME280;48031;48.542;13.232;2023-09-19T03:40:18;97069.78;;;21.98;100.00
62072;BME280;48031;48.542;13.232;2023-09-19T03:44:25;97079.81;;;22.12;100.00
62072;BME280;48031;48.542;13.232;2023-09-19T03:48:27;97089.38;;;21.76;100.00
62072;BME280;48031;48.542;13.232;2023-09-19T03:52:31;97096.22;;;21.79;100.00
62072;BME280;48031;48.542;13.232;2023-09-19T03:56:34;97092.84;;;22.32;100.00
62072;BME280;48031;48.542;13.232;2023-09-19T04:00:37;97098.09;;;21.87;100.00
62072;BME280;48031;48.542;13.232;2023-09-19T04:04:40;97095.22;;;21.75;100.00
62072;BME280;48031;48.542;13.232;2023-09-19T04:08:44;97097.84;;;21.71;100.00
62072;BME280;48031;48.542;13.232;2023-09-19T04:12:53;97097.19;;;21.74;100.00
62072;BME280;48031;48.542;13.232;2023-09-19T04:16:56;97090.06;;;21.65;100.00
62072;BME280;48031;48.542;13.232;2023-09-19T04:20:59;97101.94;;;21.65;100.00
62072;BME280;48031;48.542;13.232;2023-09-19T04:25:07;97112.63;;;21.20;100.00
62072;BME280;48031;48.542;13.232;2023-09-19T04:29:09;97123.84;;;21.06;100.00
62072;BME280;48031;48.542;13.232;2023-09-19T04:33:13;97121.38;;;20.96;100.00
62072;BME280;48031;48.542;13.232;2023-09-19T04:37:17;97127.25;;;20.78;100.00
62072;BME280;48031;48.542;13.232;2023-09-19T04:41:20;97124.09;;;21.56;100.00
62072;BME280;48031;48.542;13.232;2023-09-19T04:45:24;97134.69;;;21.03;100.00
62072;BME280;48031;48.542;13.232;2023-09-19T04:49:29;97136.34;;;21.21;100.00
62072;BME280;48031;48.542;13.232;2023-09-19T04:53:31;97138.59;;;21.10;100.00
62072;BME280;48031;48.542;13.232;2023-09-19T04:57:34;97133.78;;;21.63;100.00
62072;BME280;48031;48.542;13.232;2023-09-19T05:01:38;97147.53;;;21.80;100.00
62072;BME280;48031;48.542;13.232;2023-09-19T05:05:40;97144.44;;;21.98;100.00
62072;BME280;48031;48.542;13.232;2023-09-19T05:09:43;97145.09;;;21.95;100.00
62072;BME280;48031;48.542;13.232;2023-09-19T05:13:45;97147.94;;;21.61;100.00
62072;BME280;48031;48.542;13.232;2023-09-19T05:17:48;97143.59;;;21.43;100.00
62072;BME280;48031;48.542;13.232;2023-09-19T05:21:56;97143.47;;;21.86;100.00
62072;BME280;48031;48.542;13.232;2023-09-19T05:25:58;97154.56;;;21.69;100.00
62072;BME280;48031;48.542;13.232;2023-09-19T05:30:02;97176.88;;;21.46;100.00
62072;BME280;48031;48.542;13.232;2023-09-19T05:34:05;97185.16;;;20.60;100.00
62072;BME280;48031;48.542;13.232;2023-09-19T05:38:08;97174.97;;;20.95;100.00
62072;BME280;48031;48.542;13.232;2023-09-19T05:42:11;97182.09;;;20.70;100.00
62072;BME280;48031;48.542;13.232;2023-09-19T05:46:13;97193.53;;;20.47;100.00
62072;BME280;48031;48.542;13.232;2023-09-19T05:50:17;97202.19;;;20.80;100.00
62072;BME280;48031;48.542;13.232;2023-09-19T05:54:20;97200.69;;;20.08;100.00
62072;BME280;48031;48.542;13.232;2023-09-19T05:58:22;97206.25;;;20.73;100.00
62072;BME280;48031;48.542;13.232;2023-09-19T06:02:25;97208.22;;;20.73;100.00
62072;BME280;48031;48.542;13.232;2023-09-19T06:06:31;97207.13;;;21.26;100.00
62072;BME280;48031;48.542;13.232;2023-09-19T06:10:37;97214.59;;;21.25;100.00
62072;BME280;48031;48.542;13.232;2023-09-19T06:14:39;97217.28;;;21.77;100.00
62072;BME280;48031;48.542;13.232;2023-09-19T06:18:44;97211.28;;;21.75;100.00
62072;BME280;48031;48.542;13.232;2023-09-19T06:22:47;97207.03;;;21.86;100.00
62072;BME280;48031;48.542;13.232;2023-09-19T06:26:49;97219.53;;;21.92;100.00
62072;BME280;48031;48.542;13.232;2023-09-19T06:30:51;97218.25;;;21.98;100.00
62072;BME280;48031;48.542;13.232;2023-09-19T06:34:54;97234.00;;;21.89;100.00
62072;BME280;48031;48.542;13.232;2023-09-19T06:38:57;97242.03;;;21.30;100.00
62072;BME280;48031;48.542;13.232;2023-09-19T06:42:59;97239.28;;;21.30;100.00
62072;BME280;48031;48.542;13.232;2023-09-19T06:47:04;97247.22;;;21.57;100.00
62072;BME280;48031;48.542;13.232;2023-09-19T06:51:07;97245.88;;;20.86;100.00
62072;BME280;48031;48.542;13.232;2023-09-19T06:55:09;97248.47;;;21.86;100.00
62072;BME280;48031;48.542;13.232;2023-09-19T06:59:13;97244.38;;;22.18;100.00
62072;BME280;48031;48.542;13.232;2023-09-19T07:03:16;97246.66;;;22.07;100.00
62072;BME280;48031;48.542;13.232;2023-09-19T07:07:25;97248.25;;;22.55;100.00
62072;BME280;48031;48.542;13.232;2023-09-19T07:11:26;97256.63;;;22.37;100.00
62072;BME280;48031;48.542;13.232;2023-09-19T07:15:31;97263.75;;;22.47;100.00
62072;BME280;48031;48.542;13.232;2023-09-19T07:19:35;97272.34;;;23.13;100.00
62072;BME280;48031;48.542;13.232;2023-09-19T07:23:37;97265.94;;;23.00;100.00
62072;BME280;48031;48.542;13.232;2023-09-19T07:27:42;97276.28;;;21.89;100.00
62072;BME280;48031;48.542;13.232;2023-09-19T07:31:44;97259.72;;;22.74;100.00
62072;BME280;48031;48.542;13.232;2023-09-19T07:35:47;97266.81;;;22.16;100.00
62072;BME280;48031;48.542;13.232;2023-09-19T07:39:49;97269.34;;;22.76;100.00
62072;BME280;48031;48.542;13.232;2023-09-19T07:43:52;97285.72;;;22.90;100.00
62072;BME280;48031;48.542;13.232;2023-09-19T07:47:54;97282.78;;;23.57;100.00
62072;BME280;48031;48.542;13.232;2023-09-19T07:51:57;97294.91;;;23.03;100.00
62072;BME280;48031;48.542;13.232;2023-09-19T07:56:09;97312.28;;;22.36;100.00
62072;BME280;48031;48.542;13.232;2023-09-19T08:00:12;97301.09;;;22.79;100.00
62072;BME280;48031;48.542;13.232;2023-09-19T08:04:15;97316.63;;;22.92;100.00
62072;BME280;48031;48.542;13.232;2023-09-19T08:08:19;97312.41;;;24.19;98.95
62072;BME280;48031;48.542;13.232;2023-09-19T08:12:23;97309.78;;;24.23;97.49
62072;BME280;48031;48.542;13.232;2023-09-19T08:16:25;97334.31;;;23.79;99.56
62072;BME280;48031;48.542;13.232;2023-09-19T08:20:27;97320.38;;;23.46;99.72
62072;BME280;48031;48.542;13.232;2023-09-19T08:24:30;97310.81;;;25.12;94.24
62072;BME280;48031;48.542;13.232;2023-09-19T08:28:32;97328.84;;;22.91;100.00
62072;BME280;48031;48.542;13.232;2023-09-19T08:32:36;97316.69;;;24.62;93.84
62072;BME280;48031;48.542;13.232;2023-09-19T08:36:38;97344.81;;;23.24;99.88
62072;BME280;48031;48.542;13.232;2023-09-19T08:40:40;97323.84;;;24.87;91.49
62072;BME280;48031;48.542;13.232;2023-09-19T08:44:46;97328.56;;;24.50;91.65
62072;BME280;48031;48.542;13.232;2023-09-19T08:48:58;97327.53;;;25.64;89.06
62072;BME280;48031;48.542;13.232;2023-09-19T08:53:10;97321.69;;;26.09;85.99
62072;BME280;48031;48.542;13.232;2023-09-19T08:57:15;97336.47;;;25.45;88.15
62072;BME280;48031;48.542;13.232;2023-09-19T09:01:23;97337.59;;;23.52;91.68
62072;BME280;48031;48.542;13.232;2023-09-19T09:05:27;97339.19;;;24.48;91.43
62072;BME280;48031;48.542;13.232;2023-09-19T09:09:30;97339.19;;;24.48;91.43
62072;BME280;48031;48.542;13.232;2023-09-19T09:13:32;97348.06;;;24.29;88.67
62072;BME280;48031;48.542;13.232;2023-09-19T09:17:36;97340.50;;;24.87;85.63
62072;BME280;48031;48.542;13.232;2023-09-19T09:21:41;97337.00;;;26.03;82.46
62072;BME280;48031;48.542;13.232;2023-09-19T09:25:53;97313.91;;;27.05;77.75
62072;BME280;48031;48.542;13.232;2023-09-19T09:29:58;97314.38;;;27.77;75.37
62072;BME280;48031;48.542;13.232;2023-09-19T09:34:04;97326.69;;;26.31;79.86
62072;BME280;48031;48.542;13.232;2023-09-19T09:38:07;97331.19;;;24.47;84.35
62072;BME280;48031;48.542;13.232;2023-09-19T09:42:29;97335.44;;;26.45;80.87
62072;BME280;48031;48.542;13.232;2023-09-19T09:46:33;97334.88;;;25.20;83.94
62072;BME280;48031;48.542;13.232;2023-09-19T09:51:00;97323.31;;;24.94;83.64
62072;BME280;48031;48.542;13.232;2023-09-19T09:55:05;97337.53;;;24.92;84.31
62072;BME280;48031;48.542;13.232;2023-09-19T09:59:08;97338.38;;;26.09;80.67
62072;BME280;48031;48.542;13.232;2023-09-19T10:03:19;97334.53;;;24.97;82.23
62072;BME280;48031;48.542;13.232;2023-09-19T10:07:30;97343.78;;;24.32;98.14
62072;BME280;48031;48.542;13.232;2023-09-19T10:12:06;97334.38;;;25.42;91.30
62072;BME280;48031;48.542;13.232;2023-09-19T10:16:10;97330.47;;;25.19;88.87
62072;BME280;48031;48.542;13.232;2023-09-19T10:20:15;97325.00;;;24.86;89.09
62072;BME280;48031;48.542;13.232;2023-09-19T10:24:37;97341.78;;;26.02;85.18
62072;BME280;48031;48.542;13.232;2023-09-19T10:28:59;97300.81;;;34.17;60.34
62072;BME280;48031;48.542;13.232;2023-09-19T10:33:07;97307.47;;;32.86;61.63
62072;BME280;48031;48.542;13.232;2023-09-19T10:37:12;97315.66;;;35.01;56.23
62072;BME280;48031;48.542;13.232;2023-09-19T10:41:16;97340.81;;;27.48;71.05
62072;BME280;48031;48.542;13.232;2023-09-19T10:45:17;97327.06;;;30.69;71.03
62072;BME280;48031;48.542;13.232;2023-09-19T10:49:21;97319.09;;;31.70;62.17
62072;BME280;48031;48.542;13.232;2023-09-19T10:53:24;97304.69;;;41.85;40.49
62072;BME280;48031;48.542;13.232;2023-09-19T10:57:26;97299.53;;;39.42;41.98
62072;BME280;48031;48.542;13.232;2023-09-19T11:01:44;97274.41;;;45.69;34.31
62072;BME280;48031;48.542;13.232;2023-09-19T11:10:46;97266.97;;;40.33;37.50
62072;BME280;48031;48.542;13.232;2023-09-19T11:14:51;97318.50;;;28.02;65.81
62072;BME280;48031;48.542;13.232;2023-09-19T11:18:55;97288.72;;;36.46;43.71
62072;BME280;48031;48.542;13.232;2023-09-19T11:27:19;97306.28;;;27.18;62.30
62072;BME280;48031;48.542;13.232;2023-09-19T11:31:43;97293.97;;;27.38;68.80
62072;BME280;48031;48.542;13.232;2023-09-19T11:36:11;97303.22;;;27.58;70.89
62072;BME280;48031;48.542;13.232;2023-09-19T11:40:17;97330.09;;;25.57;78.59
62072;BME280;48031;48.542;13.232;2023-09-19T11:48:29;97424.81;;;23.16;100.00
62072;BME280;48031;48.542;13.232;2023-09-19T11:52:31;97508.91;;;20.15;100.00
62072;BME280;48031;48.542;13.232;2023-09-19T11:56:43;61634.44;;;-142.07;100.00
62072;BME280;48031;48.542;13.232;2023-09-19T12:00:54;97490.84;;;21.20;100.00
62072;BME280;48031;48.542;13.232;2023-09-19T12:04:56;97452.22;;;22.11;100.00
62072;BME280;48031;48.542;13.232;2023-09-19T12:08:59;97418.06;;;23.35;100.00
62072;BME280;48031;48.542;13.232;2023-09-19T12:13:02;97427.53;;;23.25;100.00
62072;BME280;48031;48.542;13.232;2023-09-19T12:17:04;97414.22;;;23.77;100.00
62072;BME280;48031;48.542;13.232;2023-09-19T12:21:31;97400.91;;;25.87;100.00
62072;BME280;48031;48.542;13.232;2023-09-19T12:25:43;97406.97;;;26.57;100.00
62072;BME280;48031;48.542;13.232;2023-09-19T12:29:49;97379.06;;;28.60;92.67
62072;BME280;48031;48.542;13.232;2023-09-19T12:33:54;97355.94;;;30.06;84.94
62072;BME280;48031;48.542;13.232;2023-09-19T12:37:57;97366.25;;;27.97;91.03
62072;BME280;48031;48.542;13.232;2023-09-19T12:42:00;97375.75;;;25.96;99.88
62072;BME280;48031;48.542;13.232;2023-09-19T12:46:05;97378.19;;;26.53;95.39
62072;BME280;48031;48.542;13.232;2023-09-19T12:50:16;97340.38;;;33.92;65.45
62072;BME280;48031;48.542;13.232;2023-09-19T12:54:20;97343.78;;;36.95;61.05
62072;BME280;48031;48.542;13.232;2023-09-19T12:58:23;97338.31;;;39.81;49.53
62072;BME280;48031;48.542;13.232;2023-09-19T13:02:25;97373.84;;;29.23;79.78
62072;BME280;48031;48.542;13.232;2023-09-19T13:06:36;97342.47;;;31.95;69.31
62072;BME280;48031;48.542;13.232;2023-09-19T13:15:15;97330.00;;;43.63;39.39
62072;BME280;48031;48.542;13.232;2023-09-19T13:23:42;97337.63;;;33.14;54.26
62072;BME280;48031;48.542;13.232;2023-09-19T13:27:53;97315.59;;;39.16;42.37
62072;BME280;48031;48.542;13.232;2023-09-19T13:31:56;97319.81;;;37.30;43.21
62072;BME280;48031;48.542;13.232;2023-09-19T13:35:59;97322.75;;;40.43;37.51
62072;BME280;48031;48.542;13.232;2023-09-19T13:40:00;97311.91;;;41.05;35.50
62072;BME280;48031;48.542;13.232;2023-09-19T13:44:03;97294.03;;;42.42;34.34
62072;BME280;48031;48.542;13.232;2023-09-19T13:48:07;97299.81;;;40.88;34.21
62072;BME280;48031;48.542;13.232;2023-09-19T13:52:09;97308.34;;;41.52;36.24
62072;BME280;48031;48.542;13.232;2023-09-19T13:56:11;97303.50;;;37.61;36.63
62072;BME280;48031;48.542;13.232;2023-09-19T14:00:13;82811.47;;;35.76;100.00
62072;BME280;48031;48.542;13.232;2023-09-19T14:04:19;61634.44;;;-142.07;100.00
62072;BME280;48031;48.542;13.232;2023-09-19T14:08:21;97301.38;;;-141.91;30.42
62072;BME280;48031;48.542;13.232;2023-09-19T14:12:25;61634.44;;;-142.07;100.00
62072;BME280;48031;48.542;13.232;2023-09-19T14:16:27;61634.44;;;-142.07;100.00
62072;BME280;48031;48.542;13.232;2023-09-19T14:20:32;61634.44;;;-142.07;100.00
62072;BME280;48031;48.542;13.232;2023-09-19T14:24:34;61634.44;;;-142.07;100.00
62072;BME280;48031;48.542;13.232;2023-09-19T14:28:36;61634.44;;;-142.07;100.00
62072;BME280;48031;48.542;13.232;2023-09-19T14:32:41;61634.44;;;-142.07;100.00
62072;BME280;48031;48.542;13.232;2023-09-19T14:36:43;61634.44;;;-142.07;100.00
62072;BME280;48031;48.542;13.232;2023-09-19T14:40:46;61634.44;;;-142.07;100.00
62072;BME280;48031;48.542;13.232;2023-09-19T14:44:48;97301.91;;;38.79;33.27
62072;BME280;48031;48.542;13.232;2023-09-19T14:48:53;97286.84;;;43.30;30.30
62072;BME280;48031;48.542;13.232;2023-09-19T14:52:55;97293.53;;;38.72;32.64
62072;BME280;48031;48.542;13.232;2023-09-19T14:56:57;97281.75;;;41.42;30.63
62072;BME280;48031;48.542;13.232;2023-09-19T15:01:08;97285.69;;;40.18;33.80
62072;BME280;48031;48.542;13.232;2023-09-19T15:05:12;97289.34;;;39.28;34.54
62072;BME280;48031;48.542;13.232;2023-09-19T15:09:16;97297.97;;;39.70;34.09
62072;BME280;48031;48.542;13.232;2023-09-19T15:13:20;97285.88;;;38.33;34.48
62072;BME280;48031;48.542;13.232;2023-09-19T15:17:22;97288.88;;;38.25;36.60
62072;BME280;48031;48.542;13.232;2023-09-19T15:21:26;97278.41;;;39.11;33.81
62072;BME280;48031;48.542;13.232;2023-09-19T15:25:28;97267.34;;;39.77;33.93
62072;BME280;48031;48.542;13.232;2023-09-19T15:29:30;97273.28;;;39.38;36.08
62072;BME280;48031;48.542;13.232;2023-09-19T15:33:33;97267.31;;;39.48;34.27
62072;BME280;48031;48.542;13.232;2023-09-19T15:37:36;97262.72;;;39.96;32.99
62072;BME280;48031;48.542;13.232;2023-09-19T15:41:39;97255.28;;;42.10;31.18
62072;BME280;48031;48.542;13.232;2023-09-19T15:45:42;97256.81;;;39.29;35.17
62072;BME280;48031;48.542;13.232;2023-09-19T15:49:45;97252.69;;;41.47;31.91
62072;BME280;48031;48.542;13.232;2023-09-19T15:53:49;97258.34;;;37.94;37.07
62072;BME280;48031;48.542;13.232;2023-09-19T15:57:51;97273.22;;;35.60;37.31
62072;BME280;48031;48.542;13.232;2023-09-19T16:01:54;97265.69;;;39.47;34.69
62072;BME280;48031;48.542;13.232;2023-09-19T16:05:56;97264.34;;;37.96;36.92
62072;BME280;48031;48.542;13.232;2023-09-19T16:09:58;97261.91;;;38.17;36.57
62072;BME280;48031;48.542;13.232;2023-09-19T16:14:02;97257.88;;;37.32;37.40
62072;BME280;48031;48.542;13.232;2023-09-19T16:18:05;97264.09;;;36.74;38.42
62072;BME280;48031;48.542;13.232;2023-09-19T16:22:06;97266.72;;;34.74;43.14
62072;BME280;48031;48.542;13.232;2023-09-19T16:26:08;97262.84;;;35.87;42.32
62072;BME280;48031;48.542;13.232;2023-09-19T16:30:11;97273.13;;;34.78;45.12
62072;BME280;48031;48.542;13.232;2023-09-19T16:34:15;97274.06;;;32.42;49.80
62072;BME280;48031;48.542;13.232;2023-09-19T16:38:17;97273.25;;;31.52;54.72
62072;BME280;48031;48.542;13.232;2023-09-19T16:42:19;97271.28;;;33.52;48.18
62072;BME280;48031;48.542;13.232;2023-09-19T16:46:23;97273.44;;;31.80;53.37
62072;BME280;48031;48.542;13.232;2023-09-19T16:50:25;97279.81;;;30.68;57.35
62072;BME280;48031;48.542;13.232;2023-09-19T16:54:28;97286.50;;;27.96;65.49
62072;BME280;48031;48.542;13.232;2023-09-19T16:58:30;97289.56;;;28.10;68.64
62072;BME280;48031;48.542;13.232;2023-09-19T17:02:34;97295.13;;;26.55;74.26
62072;BME280;48031;48.542;13.232;2023-09-19T17:06:38;97300.59;;;25.40;80.07
62072;BME280;48031;48.542;13.232;2023-09-19T17:10:41;97305.22;;;24.75;84.71
62072;BME280;48031;48.542;13.232;2023-09-19T17:14:46;97315.38;;;23.60;92.11
62072;BME280;48031;48.542;13.232;2023-09-19T17:18:52;97327.47;;;23.77;93.06
62072;BME280;48031;48.542;13.232;2023-09-19T17:22:55;97316.41;;;23.56;92.72
62072;BME280;48031;48.542;13.232;2023-09-19T17:26:57;97331.94;;;23.19;94.44
62072;BME280;48031;48.542;13.232;2023-09-19T17:31:08;97320.34;;;22.12;100.00
62072;BME280;48031;48.542;13.232;2023-09-19T17:35:12;97313.59;;;22.38;100.00
62072;BME280;48031;48.542;13.232;2023-09-19T17:39:16;97316.03;;;23.37;95.93
62072;BME280;48031;48.542;13.232;2023-09-19T17:43:18;97322.81;;;23.48;94.86
62072;BME280;48031;48.542;13.232;2023-09-19T17:47:20;97324.44;;;23.49;95.43
62072;BME280;48031;48.542;13.232;2023-09-19T17:51:24;97330.53;;;22.75;100.00
62072;BME280;48031;48.542;13.232;2023-09-19T17:55:26;61634.44;;;-142.07;100.00
62072;BME280;48031;48.542;13.232;2023-09-19T17:59:28;61634.44;;;-142.07;100.00
62072;BME280;48031;48.542;13.232;2023-09-19T18:03:31;61634.44;;;-142.07;100.00
62072;BME280;48031;48.542;13.232;2023-09-19T18:07:33;61634.44;;;-142.07;100.00
62072;BME280;48031;48.542;13.232;2023-09-19T18:11:35;61634.44;;;-142.07;100.00
62072;BME280;48031;48.542;13.232;2023-09-19T18:15:37;61634.44;;;-142.07;100.00
62072;BME280;48031;48.542;13.232;2023-09-19T18:19:39;61634.44;;;-142.07;100.00
62072;BME280;48031;48.542;13.232;2023-09-19T18:23:41;61634.44;;;-142.07;100.00
62072;BME280;48031;48.542;13.232;2023-09-19T18:27:43;61634.44;;;-142.07;100.00
62072;BME280;48031;48.542;13.232;2023-09-19T18:31:46;61634.44;;;-142.07;100.00
62072;BME280;48031;48.542;13.232;2023-09-19T18:35:49;61634.44;;;-142.07;100.00
62072;BME280;48031;48.542;13.232;2023-09-19T18:39:50;61634.44;;;-142.07;100.00
62072;BME280;48031;48.542;13.232;2023-09-19T18:43:52;61634.44;;;-142.07;100.00
62072;BME280;48031;48.542;13.232;2023-09-19T18:47:54;61634.44;;;-142.07;100.00
62072;BME280;48031;48.542;13.232;2023-09-19T18:51:56;61634.44;;;-142.07;100.00
62072;BME280;48031;48.542;13.232;2023-09-19T18:56:06;97361.16;;;21.72;100.00
62072;BME280;48031;48.542;13.232;2023-09-19T19:00:09;97368.06;;;21.26;100.00
62072;BME280;48031;48.542;13.232;2023-09-19T19:04:12;97366.47;;;20.86;100.00
62072;BME280;48031;48.542;13.232;2023-09-19T19:08:15;97369.22;;;21.25;100.00
62072;BME280;48031;48.542;13.232;2023-09-19T19:12:16;97366.66;;;21.89;100.00
62072;BME280;48031;48.542;13.232;2023-09-19T19:16:18;97368.78;;;21.83;100.00
62072;BME280;48031;48.542;13.232;2023-09-19T19:20:22;97378.50;;;21.38;100.00
62072;BME280;48031;48.542;13.232;2023-09-19T19:24:26;97375.78;;;21.07;100.00
62072;BME280;48031;48.542;13.232;2023-09-19T19:28:33;97380.69;;;20.70;100.00
62072;BME280;48031;48.542;13.232;2023-09-19T19:32:41;97375.47;;;20.69;100.00
62072;BME280;48031;48.542;13.232;2023-09-19T19:36:44;97375.84;;;21.15;100.00
62072;BME280;48031;48.542;13.232;2023-09-19T19:40:57;97384.94;;;21.25;100.00
62072;BME280;48031;48.542;13.232;2023-09-19T19:45:00;97394.78;;;21.56;100.00
62072;BME280;48031;48.542;13.232;2023-09-19T19:49:02;97391.28;;;21.25;100.00
62072;BME280;48031;48.542;13.232;2023-09-19T19:53:05;97386.13;;;21.32;100.00
62072;BME280;48031;48.542;13.232;2023-09-19T19:57:10;97388.38;;;21.30;100.00
62072;BME280;48031;48.542;13.232;2023-09-19T20:01:12;97389.06;;;21.44;100.00
62072;BME280;48031;48.542;13.232;2023-09-19T20:05:17;97405.66;;;21.53;100.00
62072;BME280;48031;48.542;13.232;2023-09-19T20:09:21;97408.31;;;21.19;100.00
62072;BME280;48031;48.542;13.232;2023-09-19T20:13:22;97400.59;;;21.46;100.00
62072;BME280;48031;48.542;13.232;2023-09-19T20:17:24;97395.84;;;21.30;100.00
62072;BME280;48031;48.542;13.232;2023-09-19T20:21:27;97391.88;;;20.74;100.00
62072;BME280;48031;48.542;13.232;2023-09-19T20:25:33;97406.13;;;21.07;100.00
62072;BME280;48031;48.542;13.232;2023-09-19T20:29:35;97401.34;;;20.82;100.00
62072;BME280;48031;48.542;13.232;2023-09-19T20:33:40;97399.84;;;21.06;100.00
62072;BME280;48031;48.542;13.232;2023-09-19T20:37:42;97399.19;;;20.39;100.00
62072;BME280;48031;48.542;13.232;2023-09-19T20:41:46;97403.47;;;20.85;100.00
62072;BME280;48031;48.542;13.232;2023-09-19T20:45:48;97394.06;;;20.86;100.00
62072;BME280;48031;48.542;13.232;2023-09-19T20:49:51;97395.06;;;20.90;100.00
62072;BME280;48031;48.542;13.232;2023-09-19T20:53:54;97395.22;;;20.93;100.00
62072;BME280;48031;48.542;13.232;2023-09-19T20:57:58;97404.09;;;20.51;100.00
62072;BME280;48031;48.542;13.232;2023-09-19T21:02:01;97400.31;;;20.69;100.00
62072;BME280;48031;48.542;13.232;2023-09-19T21:06:11;97400.84;;;20.80;100.00
62072;BME280;48031;48.542;13.232;2023-09-19T21:10:13;97401.41;;;20.59;100.00
62072;BME280;48031;48.542;13.232;2023-09-19T21:14:16;97401.66;;;20.80;100.00
62072;BME280;48031;48.542;13.232;2023-09-19T21:18:18;97394.19;;;20.72;100.00
62072;BME280;48031;48.542;13.232;2023-09-19T21:22:21;97400.31;;;20.69;100.00
62072;BME280;48031;48.542;13.232;2023-09-19T21:26:23;97398.28;;;20.52;100.00
62072;BME280;48031;48.542;13.232;2023-09-19T21:30:25;97381.53;;;20.80;100.00
62072;BME280;48031;48.542;13.232;2023-09-19T21:34:28;97389.72;;;20.62;100.00
62072;BME280;48031;48.542;13.232;2023-09-19T21:38:31;97394.78;;;20.69;100.00
62072;BME280;48031;48.542;13.232;2023-09-19T21:42:33;97388.34;;;20.43;100.00
62072;BME280;48031;48.542;13.232;2023-09-19T21:46:35;97398.25;;;20.44;100.00
62072;BME280;48031;48.542;13.232;2023-09-19T21:50:39;97397.69;;;20.33;100.00